createdAt,value
2018-06-20T00:02:07.620Z,80.60
2018-06-20T00:04:36.491Z,80.40
2018-06-20T00:09:33.982Z,82.70
2018-06-20T00:12:02.887Z,82.50
2018-06-20T00:14:31.790Z,82.50
2018-06-20T00:17:00.694Z,81.80
2018-06-20T00:19:29.654Z,82.30
2018-06-20T00:21:58.581Z,82.90
2018-06-20T00:24:27.478Z,83.70
2018-06-20T00:26:56.370Z,84.50
2018-06-20T00:29:25.330Z,84.40
2018-06-20T00:31:54.217Z,83.80
2018-06-20T00:34:23.098Z,84.10
2018-06-20T00:36:52.003Z,86.50
2018-06-20T00:39:20.862Z,86.80
2018-06-20T00:41:49.746Z,86.60
2018-06-20T00:44:18.618Z,86.00
2018-06-20T00:46:47.530Z,85.30
2018-06-20T00:49:16.406Z,86.10
2018-06-20T00:51:45.311Z,86.30
2018-06-20T00:54:14.208Z,87.10
2018-06-20T00:56:43.367Z,87.40
2018-06-20T00:59:12.519Z,86.50
2018-06-20T01:01:41.651Z,86.10
2018-06-20T01:04:10.746Z,87.00
2018-06-20T01:06:39.897Z,86.90
2018-06-20T01:09:11.020Z,87.40
2018-06-20T01:11:40.225Z,88.70
2018-06-20T01:14:09.310Z,89.30
2018-06-20T01:16:38.475Z,89.50
2018-06-20T01:19:07.635Z,90.20
2018-06-20T01:21:36.765Z,90.30
2018-06-20T01:24:05.879Z,90.90
2018-06-20T01:26:35.003Z,90.80
2018-06-20T01:29:04.123Z,90.60
2018-06-20T01:31:33.201Z,90.20
2018-06-20T01:34:02.312Z,90.40
2018-06-20T01:36:31.386Z,90.70
2018-06-20T01:39:00.504Z,90.70
2018-06-20T01:41:29.600Z,90.70
2018-06-20T01:43:58.698Z,91.00
2018-06-20T01:46:32.301Z,91.10
2018-06-20T01:49:01.400Z,91.10
2018-06-20T01:51:30.500Z,90.70
2018-06-20T01:53:59.623Z,90.80
2018-06-20T01:56:28.738Z,90.90
2018-06-20T01:58:57.831Z,90.80
2018-06-20T02:01:26.947Z,91.10
2018-06-20T02:03:56.016Z,91.60
2018-06-20T02:06:25.296Z,92.10
2018-06-20T02:08:58.327Z,93.10
2018-06-20T02:11:28.734Z,93.10
2018-06-20T02:13:57.843Z,93.10
2018-06-20T02:16:26.949Z,93.10
2018-06-20T02:21:25.094Z,93.20
2018-06-20T02:23:54.187Z,93.20
2018-06-20T02:26:23.275Z,93.20
2018-06-20T02:28:52.367Z,93.20
2018-06-20T02:31:21.475Z,93.10
2018-06-20T02:33:50.580Z,93.10
2018-06-20T02:36:24.998Z,93.10
2018-06-20T02:38:54.099Z,93.60
2018-06-20T02:41:23.483Z,93.20
2018-06-20T02:43:52.587Z,93.10
2018-06-20T02:46:21.663Z,92.30
2018-06-20T02:48:50.822Z,91.90
2018-06-20T02:51:19.960Z,91.60
2018-06-20T02:53:49.063Z,91.20
2018-06-20T02:56:18.193Z,91.20
2018-06-20T02:58:47.346Z,91.50
2018-06-20T03:01:16.459Z,91.40
2018-06-20T03:03:45.603Z,91.60
2018-06-20T03:06:14.739Z,91.90
2018-06-20T03:08:43.987Z,91.60
2018-06-20T03:11:13.144Z,91.80
2018-06-20T03:13:42.380Z,91.90
2018-06-20T03:16:11.525Z,91.90
2018-06-20T03:18:40.620Z,91.90
2018-06-20T03:21:09.826Z,92.40
2018-06-20T03:23:38.958Z,92.60
2018-06-20T03:26:08.066Z,92.80
2018-06-20T03:28:37.270Z,92.50
2018-06-20T03:31:06.684Z,93.10
2018-06-20T03:33:35.805Z,92.20
2018-06-20T03:36:04.883Z,92.20
2018-06-20T03:38:34.370Z,91.80
2018-06-20T03:41:03.473Z,91.90
2018-06-20T03:43:32.570Z,92.70
2018-06-20T03:46:01.851Z,92.80
2018-06-20T03:48:31.038Z,92.20
2018-06-20T03:51:00.128Z,91.80
2018-06-20T03:53:29.236Z,91.30
2018-06-20T03:55:58.346Z,90.80
2018-06-20T03:58:27.436Z,90.70
2018-06-20T04:00:56.538Z,90.70
2018-06-20T04:03:25.703Z,91.10
2018-06-20T04:05:54.790Z,91.80
2018-06-20T04:08:24.134Z,92.40
2018-06-20T04:10:53.324Z,91.30
2018-06-20T04:13:22.366Z,91.70
2018-06-20T04:15:51.535Z,91.70
2018-06-20T04:18:20.669Z,90.90
2018-06-20T04:20:49.806Z,91.30
2018-06-20T04:23:18.922Z,91.70
2018-06-20T04:25:48.015Z,91.00
2018-06-20T04:28:17.247Z,90.60
2018-06-20T04:30:46.340Z,91.60
2018-06-20T04:33:15.471Z,91.30
2018-06-20T04:35:44.583Z,91.10
2018-06-20T04:38:13.944Z,90.90
2018-06-20T04:40:43.056Z,90.00
2018-06-20T04:43:12.302Z,90.30
2018-06-20T04:45:41.403Z,89.70
2018-06-20T04:48:10.604Z,88.90
2018-06-20T04:50:39.735Z,88.90
2018-06-20T04:53:09.210Z,89.80
2018-06-20T04:55:38.553Z,89.10
2018-06-20T04:58:07.627Z,89.00
2018-06-20T05:00:36.749Z,87.80
2018-06-20T05:03:05.859Z,86.30
2018-06-20T05:05:35.084Z,85.00
2018-06-20T05:08:04.207Z,84.20
2018-06-20T05:10:33.531Z,86.00
2018-06-20T05:13:02.695Z,85.80
2018-06-20T05:15:31.799Z,83.30
2018-06-20T05:18:01.775Z,84.00
2018-06-20T05:20:31.004Z,83.60
2018-06-20T05:23:00.178Z,83.00
2018-06-20T05:25:29.410Z,83.90
2018-06-20T05:27:58.597Z,82.60
2018-06-20T05:30:27.691Z,82.90
2018-06-20T05:32:56.829Z,82.20
2018-06-20T05:35:25.879Z,81.40
2018-06-20T05:37:55.070Z,78.20
2018-06-20T05:40:24.158Z,76.40
2018-06-20T05:42:53.246Z,75.70
2018-06-20T05:45:22.395Z,74.70
2018-06-20T05:47:51.479Z,74.50
2018-06-20T05:50:20.587Z,73.80
2018-06-20T05:52:49.671Z,73.70
2018-06-20T05:55:18.791Z,74.80
2018-06-20T05:57:47.892Z,75.30
2018-06-20T06:00:16.991Z,75.00
2018-06-20T06:02:46.082Z,77.50
2018-06-20T06:05:15.253Z,77.20
2018-06-20T06:07:44.335Z,75.80
2018-06-20T06:10:18.069Z,75.60
2018-06-20T06:12:48.199Z,75.60
2018-06-20T06:15:17.288Z,74.10
2018-06-20T06:17:46.411Z,72.50
2018-06-20T06:20:15.563Z,71.50
2018-06-20T06:22:44.679Z,71.70
2018-06-20T06:25:13.811Z,71.70
2018-06-20T06:27:42.892Z,69.50
2018-06-20T06:30:12.035Z,68.20
2018-06-20T06:32:41.235Z,68.10
2018-06-20T06:37:39.035Z,66.90
2018-06-20T06:40:08.154Z,66.00
2018-06-20T06:42:37.226Z,64.30
2018-06-20T06:45:06.431Z,63.90
2018-06-20T06:47:35.531Z,63.20
2018-06-20T06:50:04.689Z,62.00
2018-06-20T06:52:33.783Z,63.60
2018-06-20T06:55:02.874Z,62.80
2018-06-20T06:57:32.232Z,62.10
2018-06-20T07:00:01.472Z,61.10
2018-06-20T07:02:30.818Z,62.30
2018-06-20T07:04:59.890Z,60.40
2018-06-20T07:07:29.139Z,59.20
2018-06-20T07:09:58.244Z,58.00
2018-06-20T07:12:27.407Z,57.90
2018-06-20T07:14:56.572Z,57.00
2018-06-20T07:17:25.640Z,57.00
2018-06-20T07:19:54.739Z,57.60
2018-06-20T07:22:23.815Z,54.70
2018-06-20T07:24:52.898Z,56.60
2018-06-20T07:27:21.988Z,55.20
2018-06-20T07:29:51.101Z,54.00
2018-06-20T07:32:20.992Z,55.10
2018-06-20T07:34:50.465Z,54.30
2018-06-20T07:37:19.660Z,54.40
2018-06-20T07:39:48.743Z,52.60
2018-06-20T07:42:17.851Z,52.40
2018-06-20T07:44:46.934Z,52.60
2018-06-20T07:47:16.099Z,51.80
2018-06-20T07:49:45.192Z,48.80
2018-06-20T07:52:14.546Z,48.40
2018-06-20T07:54:43.654Z,47.20
2018-06-20T07:57:12.941Z,44.70
2018-06-20T07:59:47.476Z,46.00
2018-06-20T08:02:33.238Z,46.20
2018-06-20T08:05:07.720Z,44.60
2018-06-20T08:07:42.279Z,44.20
2018-06-20T08:10:16.621Z,43.50
2018-06-20T08:12:50.911Z,44.30
2018-06-20T08:15:25.240Z,41.80
2018-06-20T08:17:59.778Z,42.80
2018-06-20T08:20:28.935Z,43.80
2018-06-20T08:22:58.021Z,41.80
2018-06-20T08:25:27.112Z,41.10
2018-06-20T08:27:56.183Z,42.50
2018-06-20T08:30:25.283Z,40.10
2018-06-20T08:32:54.352Z,40.20
2018-06-20T08:35:23.471Z,39.50
2018-06-20T08:37:52.570Z,40.20
2018-06-20T08:40:21.675Z,40.00
2018-06-20T08:42:50.774Z,39.50
2018-06-20T08:45:19.872Z,40.20
2018-06-20T08:47:49.067Z,38.30
2018-06-20T08:50:18.154Z,38.50
2018-06-20T08:52:47.277Z,37.80
2018-06-20T08:55:16.362Z,36.30
2018-06-20T08:57:45.816Z,35.70
2018-06-20T09:00:19.095Z,34.60
2018-06-20T09:05:22.124Z,35.70
2018-06-20T09:07:56.701Z,37.40
2018-06-20T09:10:31.055Z,33.70
2018-06-20T09:13:05.362Z,34.70
2018-06-20T09:15:39.735Z,33.60
2018-06-20T09:18:14.151Z,32.20
2018-06-20T09:20:43.311Z,32.00
2018-06-20T09:23:12.658Z,31.80
2018-06-20T09:25:41.900Z,32.00
2018-06-20T09:28:11.028Z,32.00
2018-06-20T09:33:08.866Z,31.20
2018-06-20T09:35:38.026Z,30.70
2018-06-20T09:38:07.099Z,31.80
2018-06-20T09:40:36.194Z,31.70
2018-06-20T09:43:05.395Z,32.90
2018-06-20T09:45:34.490Z,30.10
2018-06-20T09:48:03.576Z,29.60
2018-06-20T09:50:37.991Z,31.70
2018-06-20T09:53:07.066Z,29.90
2018-06-20T09:55:36.183Z,29.80
2018-06-20T09:58:05.256Z,31.00
2018-06-20T10:00:39.552Z,29.50
2018-06-20T10:03:14.036Z,30.10
2018-06-20T10:05:48.515Z,29.50
2018-06-20T10:08:22.814Z,30.00
2018-06-20T10:10:57.479Z,30.50
2018-06-20T10:13:27.260Z,32.70
2018-06-20T10:15:56.356Z,28.50
2018-06-20T10:18:25.455Z,28.40
2018-06-20T10:20:54.544Z,29.40
2018-06-20T10:23:23.670Z,30.20
2018-06-20T10:25:52.738Z,29.70
2018-06-20T10:28:21.874Z,31.00
2018-06-20T10:30:50.959Z,29.50
2018-06-20T10:33:20.061Z,28.70
2018-06-20T10:35:49.131Z,28.00
2018-06-20T10:38:18.220Z,28.70
2018-06-20T10:40:47.302Z,28.50
2018-06-20T10:43:16.512Z,29.90
2018-06-20T10:45:50.836Z,28.10
2018-06-20T10:48:19.956Z,27.50
2018-06-20T10:50:49.102Z,27.80
2018-06-20T10:55:47.371Z,28.40
2018-06-20T10:58:21.787Z,27.20
2018-06-20T11:00:56.234Z,28.80
2018-06-20T11:03:30.663Z,27.40
2018-06-20T11:06:05.081Z,28.70
2018-06-20T11:08:39.431Z,26.90
2018-06-20T11:11:13.751Z,28.30
2018-06-20T11:13:42.890Z,29.60
2018-06-20T11:16:11.999Z,26.40
2018-06-20T11:18:45.311Z,27.20
2018-06-20T11:21:14.459Z,27.40
2018-06-20T11:23:43.563Z,26.20
2018-06-20T11:26:12.783Z,26.40
2018-06-20T11:31:10.751Z,26.40
2018-06-20T11:33:39.865Z,24.50
2018-06-20T11:36:08.942Z,25.00
2018-06-20T11:38:38.076Z,26.60
2018-06-20T11:41:07.151Z,27.60
2018-06-20T11:43:36.266Z,26.80
2018-06-20T11:46:10.543Z,27.90
2018-06-20T11:48:39.659Z,29.30
2018-06-20T11:53:40.077Z,26.40
2018-06-20T11:56:09.203Z,24.50
2018-06-20T11:58:43.640Z,24.40
2018-06-20T12:01:18.022Z,25.00
2018-06-20T12:06:26.606Z,26.20
2018-06-20T12:09:00.970Z,23.10
2018-06-20T12:11:35.319Z,23.50
2018-06-20T12:14:09.722Z,23.00
2018-06-20T12:16:39.199Z,22.90
2018-06-20T12:19:13.795Z,24.60
2018-06-20T12:21:48.211Z,22.50
2018-06-20T12:24:22.654Z,22.60
2018-06-20T12:26:56.969Z,21.30
2018-06-20T12:29:31.559Z,22.60
2018-06-20T12:32:05.935Z,22.40
2018-06-20T12:34:40.247Z,23.50
2018-06-20T12:37:14.726Z,23.70
2018-06-20T12:39:43.143Z,22.50
2018-06-20T12:42:17.846Z,24.10
2018-06-20T12:44:52.086Z,23.60
2018-06-20T12:47:26.922Z,23.40
2018-06-20T12:50:00.370Z,23.80
2018-06-20T12:52:29.658Z,24.40
2018-06-20T12:54:58.752Z,23.10
2018-06-20T12:57:27.939Z,22.30
2018-06-20T12:59:57.027Z,23.10
2018-06-20T13:02:26.103Z,21.40
2018-06-20T13:04:55.211Z,22.10
2018-06-20T13:07:24.294Z,22.70
2018-06-20T13:09:53.566Z,23.80
2018-06-20T13:12:22.659Z,22.60
2018-06-20T13:14:51.754Z,20.80
2018-06-20T13:17:20.850Z,23.40
2018-06-20T13:19:49.998Z,21.60
2018-06-20T13:22:19.093Z,20.10
2018-06-20T13:24:48.192Z,21.50
2018-06-20T13:27:22.579Z,19.90
2018-06-20T13:30:23.411Z,21.40
2018-06-20T13:32:57.887Z,20.70
2018-06-20T13:36:35.285Z,20.20
2018-06-20T13:39:11.487Z,19.80
2018-06-20T13:41:46.532Z,20.60
2018-06-20T13:44:20.871Z,20.40
2018-06-20T13:46:55.237Z,20.00
2018-06-20T13:49:24.346Z,18.80
2018-06-20T13:51:53.501Z,20.70
2018-06-20T13:54:22.907Z,19.30
2018-06-20T13:56:52.539Z,18.70
2018-06-20T13:59:22.509Z,20.20
2018-06-20T14:01:51.639Z,17.40
2018-06-20T14:06:49.379Z,17.10
2018-06-20T14:09:18.523Z,19.10
2018-06-20T14:11:47.675Z,19.30
2018-06-20T14:14:16.780Z,20.70
2018-06-20T14:16:45.899Z,21.00
2018-06-20T14:19:14.964Z,19.50
2018-06-20T14:21:44.124Z,19.60
2018-06-20T14:24:13.224Z,18.30
2018-06-20T14:29:11.375Z,17.60
2018-06-20T14:31:45.804Z,17.50
2018-06-20T14:34:20.164Z,17.20
2018-06-20T14:37:54.251Z,17.20
2018-06-20T14:40:28.799Z,16.00
2018-06-20T14:43:02.827Z,17.50
2018-06-20T14:45:37.232Z,15.70
2018-06-20T14:48:06.302Z,16.40
2018-06-20T14:50:35.411Z,16.80
2018-06-20T14:53:05.876Z,17.10
2018-06-20T14:55:35.003Z,17.00
2018-06-20T15:00:34.283Z,17.90
2018-06-20T15:03:04.151Z,16.90
2018-06-20T15:05:33.243Z,16.80
2018-06-20T15:08:03.246Z,16.60
2018-06-20T15:10:32.411Z,19.80
2018-06-20T15:13:02.528Z,17.60
2018-06-20T15:15:31.636Z,18.20
2018-06-20T15:18:00.753Z,18.00
2018-06-20T15:20:30.045Z,17.20
2018-06-20T15:22:59.139Z,17.20
2018-06-20T15:25:32.252Z,18.00
2018-06-20T15:28:06.770Z,15.60
2018-06-20T15:30:41.168Z,15.90
2018-06-20T15:33:15.378Z,16.90
2018-06-20T15:35:49.752Z,16.00
2018-06-20T15:38:23.131Z,15.80
2018-06-20T15:40:52.350Z,16.00
2018-06-20T15:43:21.415Z,16.10
2018-06-20T15:45:50.583Z,16.50
2018-06-20T15:48:19.744Z,16.00
2018-06-20T15:50:48.839Z,15.20
2018-06-20T15:53:17.963Z,15.20
2018-06-20T15:55:47.127Z,13.90
2018-06-20T15:58:16.351Z,13.40
2018-06-20T16:00:45.443Z,14.00
2018-06-20T16:03:14.611Z,14.20
2018-06-20T16:05:43.703Z,13.50
2018-06-20T16:08:12.835Z,13.30
2018-06-20T16:10:41.960Z,13.80
2018-06-20T16:13:11.099Z,14.30
2018-06-20T16:15:40.726Z,14.30
2018-06-20T16:18:09.867Z,14.00
2018-06-20T16:20:44.135Z,14.10
2018-06-20T16:23:18.524Z,14.00
2018-06-20T16:25:52.747Z,13.60
2018-06-20T16:28:27.400Z,14.10
2018-06-20T16:30:56.678Z,15.30
2018-06-20T16:33:25.778Z,14.80
2018-06-20T16:35:54.911Z,15.20
2018-06-20T16:38:24.043Z,15.50
2018-06-20T16:40:53.126Z,13.90
2018-06-20T16:43:22.214Z,14.10
2018-06-20T16:45:51.310Z,14.00
2018-06-20T16:48:20.490Z,13.90
2018-06-20T16:50:49.587Z,14.80
2018-06-20T16:53:18.848Z,14.50
2018-06-20T16:55:49.789Z,14.60
2018-06-20T16:58:18.866Z,14.10
2018-06-20T17:00:47.973Z,14.10
2018-06-20T17:03:17.042Z,13.90
2018-06-20T17:05:54.010Z,14.80
2018-06-20T17:08:23.175Z,13.90
2018-06-20T17:10:52.262Z,13.30
2018-06-20T17:13:26.620Z,13.60
2018-06-20T17:16:01.544Z,13.40
2018-06-20T17:18:35.959Z,13.30
2018-06-20T17:21:10.303Z,14.00
2018-06-20T17:23:44.622Z,13.50
2018-06-20T17:26:13.873Z,13.90
2018-06-20T17:28:43.003Z,13.60
2018-06-20T17:33:40.790Z,13.60
2018-06-20T17:36:10.016Z,14.30
2018-06-20T17:38:39.142Z,13.60
2018-06-20T17:41:08.285Z,13.60
2018-06-20T17:43:37.416Z,14.80
2018-06-20T17:46:06.504Z,16.00
2018-06-20T17:48:35.636Z,15.90
2018-06-20T17:51:04.730Z,16.90
2018-06-20T17:53:34.079Z,16.60
2018-06-20T17:56:04.798Z,17.50
2018-06-20T17:58:34.342Z,17.80
2018-06-20T18:01:10.448Z,19.70
2018-06-20T18:03:40.387Z,20.50
2018-06-20T18:06:14.857Z,20.90
2018-06-20T18:08:49.342Z,20.50
2018-06-20T18:11:22.634Z,21.00
2018-06-20T18:13:57.071Z,22.10
2018-06-20T18:16:31.534Z,22.20
2018-06-20T18:21:29.329Z,23.80
2018-06-20T18:23:58.431Z,23.60
2018-06-20T18:26:27.598Z,23.70
2018-06-20T18:28:56.647Z,25.00
2018-06-20T18:31:25.842Z,24.00
2018-06-20T18:33:54.911Z,24.70
2018-06-20T18:36:24.154Z,24.60
2018-06-20T18:38:53.238Z,25.20
2018-06-20T18:41:22.471Z,25.20
2018-06-20T18:43:51.812Z,25.40
2018-06-20T18:46:20.998Z,25.60
2018-06-20T18:48:50.167Z,26.00
2018-06-20T18:51:19.248Z,26.20
2018-06-20T18:53:48.430Z,26.50
2018-06-20T18:56:17.617Z,26.80
2018-06-20T18:58:52.019Z,27.40
2018-06-20T19:01:26.350Z,27.40
2018-06-20T19:04:01.804Z,27.60
2018-06-20T19:06:36.221Z,27.90
2018-06-20T19:09:11.063Z,28.60
2018-06-20T19:11:40.349Z,28.60
2018-06-20T19:16:38.507Z,30.20
2018-06-20T19:19:07.628Z,31.20
2018-06-20T19:21:36.832Z,31.70
2018-06-20T19:24:05.999Z,32.30
2018-06-20T19:29:03.815Z,32.60
2018-06-20T19:34:01.590Z,33.60
2018-06-20T19:36:30.654Z,34.40
2018-06-20T19:38:59.844Z,34.40
2018-06-20T19:44:03.411Z,35.60
2018-06-20T19:46:33.175Z,36.40
2018-06-20T19:49:02.303Z,36.30
2018-06-20T19:51:31.490Z,36.80
2018-06-20T19:54:00.734Z,37.00
2018-06-20T19:58:58.484Z,37.80
2018-06-20T20:01:27.667Z,38.10
2018-06-20T20:03:56.762Z,38.20
2018-06-20T20:06:25.863Z,38.50
2018-06-20T20:08:55.071Z,38.50
2018-06-20T20:11:24.181Z,38.70
2018-06-20T20:13:53.361Z,38.90
2018-06-20T20:16:22.514Z,39.20
2018-06-20T20:18:51.626Z,39.60
2018-06-20T20:21:21.034Z,39.90
2018-06-20T20:23:51.519Z,40.30
2018-06-20T20:26:21.581Z,40.30
2018-06-20T20:28:51.452Z,40.70
2018-06-20T20:31:21.367Z,41.20
2018-06-20T20:33:56.291Z,41.40
2018-06-20T20:36:25.380Z,41.90
2018-06-20T20:38:55.411Z,42.30
2018-06-20T20:41:25.932Z,43.40
2018-06-20T20:43:59.146Z,42.90
2018-06-20T20:46:29.977Z,43.50
2018-06-20T20:48:59.091Z,44.00
2018-06-20T20:51:28.172Z,44.30
2018-06-20T20:53:57.282Z,44.50
2018-06-20T20:56:26.379Z,45.00
2018-06-20T20:58:59.300Z,45.40
2018-06-20T21:01:28.364Z,45.70
2018-06-20T21:03:57.587Z,46.40
2018-06-20T21:06:27.374Z,46.50
2018-06-20T21:08:56.634Z,46.80
2018-06-20T21:11:30.761Z,47.10
2018-06-20T21:14:02.083Z,47.90
2018-06-20T21:16:32.950Z,48.20
2018-06-20T21:19:03.010Z,48.20
2018-06-20T21:21:33.035Z,48.10
2018-06-20T21:26:31.931Z,48.90
2018-06-20T21:29:01.195Z,49.00
2018-06-20T21:31:30.415Z,49.40
2018-06-20T21:36:28.382Z,49.70
2018-06-20T21:38:57.595Z,50.20
2018-06-20T21:41:27.067Z,50.80
2018-06-20T21:43:56.306Z,51.00
2018-06-20T21:46:26.543Z,51.30
2018-06-20T21:48:55.843Z,51.40
2018-06-20T21:51:25.015Z,51.90
2018-06-20T21:53:54.163Z,52.70
2018-06-20T21:56:23.249Z,53.00
2018-06-20T21:58:52.347Z,53.00
2018-06-20T22:01:21.449Z,53.30
2018-06-20T22:03:50.619Z,53.50
2018-06-20T22:06:19.732Z,53.50
2018-06-20T22:08:48.897Z,53.90
2018-06-20T22:11:17.968Z,54.80
2018-06-20T22:13:47.100Z,55.10
2018-06-20T22:16:16.253Z,55.20
2018-06-20T22:18:45.365Z,55.70
2018-06-20T22:21:14.511Z,55.60
2018-06-20T22:23:43.607Z,56.40
2018-06-20T22:26:12.864Z,56.20
2018-06-20T22:28:41.972Z,56.70
2018-06-20T22:31:11.098Z,57.60
2018-06-20T22:33:40.292Z,58.30
2018-06-20T22:36:09.420Z,58.80
2018-06-20T22:38:38.608Z,59.00
2018-06-20T22:41:07.737Z,59.70
2018-06-20T22:43:36.959Z,60.30
2018-06-20T22:46:06.235Z,60.40
2018-06-20T22:48:35.413Z,61.00
2018-06-20T22:51:04.517Z,62.00
2018-06-20T22:53:33.624Z,62.50
2018-06-20T22:56:02.702Z,64.00
2018-06-20T22:58:31.816Z,63.00
2018-06-20T23:01:00.892Z,62.90
2018-06-20T23:03:30.006Z,63.70
2018-06-20T23:05:59.147Z,63.90
2018-06-20T23:08:28.231Z,65.50
2018-06-20T23:10:57.338Z,65.40
2018-06-20T23:13:26.423Z,66.30
2018-06-20T23:15:56.715Z,66.10
2018-06-20T23:18:25.812Z,65.70
2018-06-20T23:20:54.911Z,65.10
2018-06-20T23:23:24.033Z,64.80
2018-06-20T23:25:53.127Z,65.00
2018-06-20T23:28:22.234Z,64.90
2018-06-20T23:30:51.328Z,65.00
2018-06-20T23:33:20.395Z,64.60
2018-06-20T23:35:49.491Z,66.20
2018-06-20T23:38:18.566Z,65.60
2018-06-20T23:40:47.696Z,65.70
2018-06-20T23:43:16.783Z,66.30
2018-06-20T23:45:45.923Z,66.70
2018-06-20T23:48:15.007Z,66.60
2018-06-20T23:50:44.227Z,66.20
2018-06-20T23:53:13.322Z,66.40
2018-06-20T23:55:42.440Z,67.60
2018-06-20T23:58:11.624Z,68.00
